sensor_id;sensor_type;location;lat;lon;timestamp;temperature;humidity
27224;DHT22;14965;50.660;13.226;2023-06-14T00:00:53;9.30;99.90
27224;DHT22;14965;50.660;13.226;2023-06-14T00:03:19;9.30;99.90
27224;DHT22;14965;50.660;13.226;2023-06-14T00:05:45;9.40;99.90
27224;DHT22;14965;50.660;13.226;2023-06-14T00:08:13;9.40;99.90
27224;DHT22;14965;50.660;13.226;2023-06-14T00:10:39;9.30;99.90
27224;DHT22;14965;50.660;13.226;2023-06-14T00:13:05;9.40;99.90
27224;DHT22;14965;50.660;13.226;2023-06-14T00:15:31;9.40;99.90
27224;DHT22;14965;50.660;13.226;2023-06-14T00:17:57;9.30;99.90
27224;DHT22;14965;50.660;13.226;2023-06-14T00:20:23;9.30;99.90
27224;DHT22;14965;50.660;13.226;2023-06-14T00:22:49;9.30;99.90
27224;DHT22;14965;50.660;13.226;2023-06-14T00:25:16;9.40;99.90
27224;DHT22;14965;50.660;13.226;2023-06-14T00:27:42;9.40;99.90
27224;DHT22;14965;50.660;13.226;2023-06-14T00:30:09;9.40;99.90
27224;DHT22;14965;50.660;13.226;2023-06-14T00:32:35;9.30;99.90
27224;DHT22;14965;50.660;13.226;2023-06-14T00:35:01;9.30;99.90
27224;DHT22;14965;50.660;13.226;2023-06-14T00:37:28;9.30;99.90
27224;DHT22;14965;50.660;13.226;2023-06-14T00:39:53;9.20;99.90
27224;DHT22;14965;50.660;13.226;2023-06-14T00:42:24;9.20;99.90
27224;DHT22;14965;50.660;13.226;2023-06-14T00:44:50;9.20;99.90
27224;DHT22;14965;50.660;13.226;2023-06-14T00:47:16;9.00;99.90
27224;DHT22;14965;50.660;13.226;2023-06-14T00:49:43;9.00;99.90
27224;DHT22;14965;50.660;13.226;2023-06-14T00:52:10;8.90;99.90
27224;DHT22;14965;50.660;13.226;2023-06-14T00:54:36;8.90;99.90
27224;DHT22;14965;50.660;13.226;2023-06-14T00:57:02;8.90;99.90
27224;DHT22;14965;50.660;13.226;2023-06-14T00:59:30;8.90;99.90
27224;DHT22;14965;50.660;13.226;2023-06-14T01:01:56;8.90;99.90
27224;DHT22;14965;50.660;13.226;2023-06-14T01:04:22;8.80;99.90
27224;DHT22;14965;50.660;13.226;2023-06-14T01:06:54;8.70;99.90
27224;DHT22;14965;50.660;13.226;2023-06-14T01:09:31;8.60;99.90
27224;DHT22;14965;50.660;13.226;2023-06-14T01:12:11;8.70;99.90
27224;DHT22;14965;50.660;13.226;2023-06-14T01:14:44;8.60;99.90
27224;DHT22;14965;50.660;13.226;2023-06-14T01:17:14;8.60;99.90
27224;DHT22;14965;50.660;13.226;2023-06-14T01:19:41;8.50;99.90
27224;DHT22;14965;50.660;13.226;2023-06-14T01:22:07;8.50;99.90
27224;DHT22;14965;50.660;13.226;2023-06-14T01:24:34;8.50;99.90
27224;DHT22;14965;50.660;13.226;2023-06-14T01:27:01;8.50;99.90
27224;DHT22;14965;50.660;13.226;2023-06-14T01:29:28;8.50;99.90
27224;DHT22;14965;50.660;13.226;2023-06-14T01:31:55;8.40;99.90
27224;DHT22;14965;50.660;13.226;2023-06-14T01:34:21;8.30;99.90
27224;DHT22;14965;50.660;13.226;2023-06-14T01:36:47;8.30;99.90
27224;DHT22;14965;50.660;13.226;2023-06-14T01:39:16;8.30;99.90
27224;DHT22;14965;50.660;13.226;2023-06-14T01:41:45;8.30;99.90
27224;DHT22;14965;50.660;13.226;2023-06-14T01:44:16;8.30;99.90
27224;DHT22;14965;50.660;13.226;2023-06-14T01:46:43;8.40;99.90
27224;DHT22;14965;50.660;13.226;2023-06-14T01:49:10;8.40;99.90
27224;DHT22;14965;50.660;13.226;2023-06-14T01:51:37;8.30;99.90
27224;DHT22;14965;50.660;13.226;2023-06-14T01:54:03;8.20;99.90
27224;DHT22;14965;50.660;13.226;2023-06-14T01:56:28;8.20;99.90
27224;DHT22;14965;50.660;13.226;2023-06-14T01:58:56;8.20;99.90
27224;DHT22;14965;50.660;13.226;2023-06-14T02:01:22;8.10;99.90
27224;DHT22;14965;50.660;13.226;2023-06-14T02:03:48;8.10;99.90
27224;DHT22;14965;50.660;13.226;2023-06-14T02:06:14;8.10;99.90
27224;DHT22;14965;50.660;13.226;2023-06-14T02:08:39;8.10;99.90
27224;DHT22;14965;50.660;13.226;2023-06-14T02:11:05;8.00;99.90
27224;DHT22;14965;50.660;13.226;2023-06-14T02:13:31;8.00;99.90
27224;DHT22;14965;50.660;13.226;2023-06-14T02:15:58;7.90;99.90
27224;DHT22;14965;50.660;13.226;2023-06-14T02:18:24;7.90;99.90
27224;DHT22;14965;50.660;13.226;2023-06-14T02:20:50;7.80;99.90
27224;DHT22;14965;50.660;13.226;2023-06-14T02:23:16;7.80;99.90
27224;DHT22;14965;50.660;13.226;2023-06-14T02:25:41;7.70;99.90
27224;DHT22;14965;50.660;13.226;2023-06-14T02:28:07;7.80;99.90
27224;DHT22;14965;50.660;13.226;2023-06-14T02:30:33;7.90;99.90
27224;DHT22;14965;50.660;13.226;2023-06-14T02:33:00;7.90;99.90
27224;DHT22;14965;50.660;13.226;2023-06-14T02:35:27;7.80;99.90
27224;DHT22;14965;50.660;13.226;2023-06-14T02:37:53;7.70;99.90
27224;DHT22;14965;50.660;13.226;2023-06-14T02:40:19;7.70;99.90
27224;DHT22;14965;50.660;13.226;2023-06-14T02:42:45;7.60;99.90
27224;DHT22;14965;50.660;13.226;2023-06-14T02:45:11;7.60;99.90
27224;DHT22;14965;50.660;13.226;2023-06-14T02:47:37;7.50;99.90
27224;DHT22;14965;50.660;13.226;2023-06-14T02:50:05;7.60;99.90
27224;DHT22;14965;50.660;13.226;2023-06-14T02:52:33;7.60;99.90
27224;DHT22;14965;50.660;13.226;2023-06-14T02:54:59;7.60;99.90
27224;DHT22;14965;50.660;13.226;2023-06-14T02:57:25;7.60;99.90
27224;DHT22;14965;50.660;13.226;2023-06-14T02:59:51;7.70;99.90
27224;DHT22;14965;50.660;13.226;2023-06-14T03:02:17;7.60;99.90
27224;DHT22;14965;50.660;13.226;2023-06-14T03:04:42;7.60;99.90
27224;DHT22;14965;50.660;13.226;2023-06-14T03:07:10;7.60;99.90
27224;DHT22;14965;50.660;13.226;2023-06-14T03:09:36;7.50;99.90
27224;DHT22;14965;50.660;13.226;2023-06-14T03:12:02;7.60;99.90
27224;DHT22;14965;50.660;13.226;2023-06-14T03:14:28;7.60;99.90
27224;DHT22;14965;50.660;13.226;2023-06-14T03:16:54;7.60;99.90
27224;DHT22;14965;50.660;13.226;2023-06-14T03:19:20;7.60;99.90
27224;DHT22;14965;50.660;13.226;2023-06-14T03:21:46;7.60;99.90
27224;DHT22;14965;50.660;13.226;2023-06-14T03:24:13;7.60;99.90
27224;DHT22;14965;50.660;13.226;2023-06-14T03:26:39;7.70;99.90
27224;DHT22;14965;50.660;13.226;2023-06-14T03:29:04;7.70;99.90
27224;DHT22;14965;50.660;13.226;2023-06-14T03:31:30;7.70;99.90
27224;DHT22;14965;50.660;13.226;2023-06-14T03:33:56;7.70;99.90
27224;DHT22;14965;50.660;13.226;2023-06-14T03:36:22;7.70;99.90
27224;DHT22;14965;50.660;13.226;2023-06-14T03:38:48;7.60;99.90
27224;DHT22;14965;50.660;13.226;2023-06-14T03:41:15;7.60;99.90
27224;DHT22;14965;50.660;13.226;2023-06-14T03:43:41;7.70;99.90
27224;DHT22;14965;50.660;13.226;2023-06-14T03:46:06;7.80;99.90
27224;DHT22;14965;50.660;13.226;2023-06-14T03:48:33;7.90;99.90
27224;DHT22;14965;50.660;13.226;2023-06-14T03:50:58;8.00;99.90
27224;DHT22;14965;50.660;13.226;2023-06-14T03:53:24;8.10;99.90
27224;DHT22;14965;50.660;13.226;2023-06-14T03:55:50;8.20;99.90
27224;DHT22;14965;50.660;13.226;2023-06-14T03:58:17;8.30;99.90
27224;DHT22;14965;50.660;13.226;2023-06-14T04:00:43;8.30;99.90
27224;DHT22;14965;50.660;13.226;2023-06-14T04:03:09;8.40;99.90
27224;DHT22;14965;50.660;13.226;2023-06-14T04:05:35;8.30;99.90
27224;DHT22;14965;50.660;13.226;2023-06-14T04:08:01;8.30;99.90
27224;DHT22;14965;50.660;13.226;2023-06-14T04:10:27;8.30;99.90
27224;DHT22;14965;50.660;13.226;2023-06-14T04:12:52;8.40;99.90
27224;DHT22;14965;50.660;13.226;2023-06-14T04:15:20;8.40;99.90
27224;DHT22;14965;50.660;13.226;2023-06-14T04:17:46;8.50;99.90
27224;DHT22;14965;50.660;13.226;2023-06-14T04:20:12;8.50;99.90
27224;DHT22;14965;50.660;13.226;2023-06-14T04:22:37;8.60;99.90
27224;DHT22;14965;50.660;13.226;2023-06-14T04:25:04;9.00;99.90
27224;DHT22;14965;50.660;13.226;2023-06-14T04:27:30;9.90;99.90
27224;DHT22;14965;50.660;13.226;2023-06-14T04:29:56;11.30;99.90
27224;DHT22;14965;50.660;13.226;2023-06-14T04:32:25;12.70;99.90
27224;DHT22;14965;50.660;13.226;2023-06-14T04:34:51;14.00;99.90
27224;DHT22;14965;50.660;13.226;2023-06-14T04:37:18;14.50;99.90
27224;DHT22;14965;50.660;13.226;2023-06-14T04:39:44;14.90;99.90
27224;DHT22;14965;50.660;13.226;2023-06-14T04:42:09;15.90;99.90
27224;DHT22;14965;50.660;13.226;2023-06-14T04:44:35;16.60;99.90
27224;DHT22;14965;50.660;13.226;2023-06-14T04:47:01;17.20;99.90
27224;DHT22;14965;50.660;13.226;2023-06-14T04:49:28;17.80;99.90
27224;DHT22;14965;50.660;13.226;2023-06-14T04:51:56;18.40;98.30
27224;DHT22;14965;50.660;13.226;2023-06-14T04:54:22;18.60;96.40
27224;DHT22;14965;50.660;13.226;2023-06-14T04:56:48;18.80;95.10
27224;DHT22;14965;50.660;13.226;2023-06-14T04:59:14;19.20;93.70
27224;DHT22;14965;50.660;13.226;2023-06-14T05:01:40;19.60;92.60
27224;DHT22;14965;50.660;13.226;2023-06-14T05:04:06;20.00;91.60
27224;DHT22;14965;50.660;13.226;2023-06-14T05:06:34;20.30;91.00
27224;DHT22;14965;50.660;13.226;2023-06-14T05:08:59;20.30;90.50
27224;DHT22;14965;50.660;13.226;2023-06-14T05:11:25;20.20;90.40
27224;DHT22;14965;50.660;13.226;2023-06-14T05:13:51;19.90;90.40
27224;DHT22;14965;50.660;13.226;2023-06-14T05:16:17;20.00;90.70
27224;DHT22;14965;50.660;13.226;2023-06-14T05:18:43;20.40;90.20
27224;DHT22;14965;50.660;13.226;2023-06-14T05:21:09;20.70;89.00
27224;DHT22;14965;50.660;13.226;2023-06-14T05:23:36;20.70;88.70
27224;DHT22;14965;50.660;13.226;2023-06-14T05:26:02;21.10;88.20
27224;DHT22;14965;50.660;13.226;2023-06-14T05:28:27;21.50;87.10
27224;DHT22;14965;50.660;13.226;2023-06-14T05:30:53;21.70;86.00
27224;DHT22;14965;50.660;13.226;2023-06-14T05:33:19;22.00;86.20
27224;DHT22;14965;50.660;13.226;2023-06-14T05:35:45;22.10;84.50
27224;DHT22;14965;50.660;13.226;2023-06-14T05:38:11;22.20;84.50
27224;DHT22;14965;50.660;13.226;2023-06-14T05:40:38;21.90;84.50
27224;DHT22;14965;50.660;13.226;2023-06-14T05:43:04;21.60;85.20
27224;DHT22;14965;50.660;13.226;2023-06-14T05:45:30;21.60;85.50
27224;DHT22;14965;50.660;13.226;2023-06-14T05:47:55;22.00;86.00
27224;DHT22;14965;50.660;13.226;2023-06-14T05:50:22;22.30;84.10
27224;DHT22;14965;50.660;13.226;2023-06-14T05:52:47;22.40;83.90
27224;DHT22;14965;50.660;13.226;2023-06-14T05:55:15;22.50;83.50
27224;DHT22;14965;50.660;13.226;2023-06-14T05:57:43;22.00;83.30
27224;DHT22;14965;50.660;13.226;2023-06-14T06:00:09;22.00;84.60
27224;DHT22;14965;50.660;13.226;2023-06-14T06:02:36;22.20;85.10
27224;DHT22;14965;50.660;13.226;2023-06-14T06:05:02;22.40;84.10
27224;DHT22;14965;50.660;13.226;2023-06-14T06:07:28;22.60;83.30
27224;DHT22;14965;50.660;13.226;2023-06-14T06:09:54;22.90;79.90
27224;DHT22;14965;50.660;13.226;2023-06-14T06:12:20;22.80;80.70
27224;DHT22;14965;50.660;13.226;2023-06-14T06:14:47;22.80;80.70
27224;DHT22;14965;50.660;13.226;2023-06-14T06:17:13;21.80;83.70
27224;DHT22;14965;50.660;13.226;2023-06-14T06:19:39;21.60;86.30
27224;DHT22;14965;50.660;13.226;2023-06-14T06:22:05;21.20;83.10
27224;DHT22;14965;50.660;13.226;2023-06-14T06:24:30;21.30;85.60
27224;DHT22;14965;50.660;13.226;2023-06-14T06:26:56;20.90;87.10
27224;DHT22;14965;50.660;13.226;2023-06-14T06:29:22;21.00;86.40
27224;DHT22;14965;50.660;13.226;2023-06-14T06:31:49;20.40;86.20
27224;DHT22;14965;50.660;13.226;2023-06-14T06:34:15;20.00;87.60
27224;DHT22;14965;50.660;13.226;2023-06-14T06:36:41;19.50;89.40
27224;DHT22;14965;50.660;13.226;2023-06-14T06:39:07;19.70;88.50
27224;DHT22;14965;50.660;13.226;2023-06-14T06:41:33;19.80;89.60
27224;DHT22;14965;50.660;13.226;2023-06-14T06:43:58;19.90;88.10
27224;DHT22;14965;50.660;13.226;2023-06-14T06:46:24;19.90;88.00
27224;DHT22;14965;50.660;13.226;2023-06-14T06:48:51;19.80;90.00
27224;DHT22;14965;50.660;13.226;2023-06-14T06:51:17;19.50;90.60
27224;DHT22;14965;50.660;13.226;2023-06-14T06:53:43;19.60;89.30
27224;DHT22;14965;50.660;13.226;2023-06-14T06:56:09;19.70;89.40
27224;DHT22;14965;50.660;13.226;2023-06-14T06:58:35;19.70;89.70
27224;DHT22;14965;50.660;13.226;2023-06-14T07:01:00;19.30;91.60
27224;DHT22;14965;50.660;13.226;2023-06-14T07:03:26;19.00;91.80
27224;DHT22;14965;50.660;13.226;2023-06-14T07:05:53;18.70;93.20
27224;DHT22;14965;50.660;13.226;2023-06-14T07:08:19;18.60;93.80
27224;DHT22;14965;50.660;13.226;2023-06-14T07:10:45;18.70;92.80
27224;DHT22;14965;50.660;13.226;2023-06-14T07:13:11;18.60;93.40
27224;DHT22;14965;50.660;13.226;2023-06-14T07:15:37;18.70;93.20
27224;DHT22;14965;50.660;13.226;2023-06-14T07:18:03;18.70;94.10
27224;DHT22;14965;50.660;13.226;2023-06-14T07:20:29;18.70;93.50
27224;DHT22;14965;50.660;13.226;2023-06-14T07:22:56;18.60;94.80
27224;DHT22;14965;50.660;13.226;2023-06-14T07:25:22;18.80;93.60
27224;DHT22;14965;50.660;13.226;2023-06-14T07:27:47;18.80;93.70
27224;DHT22;14965;50.660;13.226;2023-06-14T07:30:13;18.90;93.50
27224;DHT22;14965;50.660;13.226;2023-06-14T07:32:39;18.80;93.10
27224;DHT22;14965;50.660;13.226;2023-06-14T07:35:06;18.70;92.60
27224;DHT22;14965;50.660;13.226;2023-06-14T07:37:32;18.60;93.40
27224;DHT22;14965;50.660;13.226;2023-06-14T07:39:59;18.60;92.90
27224;DHT22;14965;50.660;13.226;2023-06-14T07:42:25;18.70;93.70
27224;DHT22;14965;50.660;13.226;2023-06-14T07:44:51;18.70;94.50
27224;DHT22;14965;50.660;13.226;2023-06-14T07:47:17;18.70;94.70
27224;DHT22;14965;50.660;13.226;2023-06-14T07:49:43;18.70;94.70
27224;DHT22;14965;50.660;13.226;2023-06-14T07:52:09;18.70;95.20
27224;DHT22;14965;50.660;13.226;2023-06-14T07:54:34;18.30;95.40
27224;DHT22;14965;50.660;13.226;2023-06-14T07:57:02;18.20;96.30
27224;DHT22;14965;50.660;13.226;2023-06-14T07:59:28;17.60;96.40
27224;DHT22;14965;50.660;13.226;2023-06-14T08:01:54;17.20;96.80
27224;DHT22;14965;50.660;13.226;2023-06-14T08:04:19;16.80;97.10
27224;DHT22;14965;50.660;13.226;2023-06-14T08:06:45;16.80;97.30
27224;DHT22;14965;50.660;13.226;2023-06-14T08:09:12;17.10;97.00
27224;DHT22;14965;50.660;13.226;2023-06-14T08:11:38;17.60;96.40
27224;DHT22;14965;50.660;13.226;2023-06-14T08:14:06;17.90;95.50
27224;DHT22;14965;50.660;13.226;2023-06-14T08:16:31;18.00;96.00
27224;DHT22;14965;50.660;13.226;2023-06-14T08:18:57;18.30;95.40
27224;DHT22;14965;50.660;13.226;2023-06-14T08:21:23;18.10;93.50
27224;DHT22;14965;50.660;13.226;2023-06-14T08:23:49;17.90;93.40
27224;DHT22;14965;50.660;13.226;2023-06-14T08:26:15;17.80;94.10
27224;DHT22;14965;50.660;13.226;2023-06-14T08:28:41;18.00;94.10
27224;DHT22;14965;50.660;13.226;2023-06-14T08:31:09;18.40;93.90
27224;DHT22;14965;50.660;13.226;2023-06-14T08:33:34;18.30;93.90
27224;DHT22;14965;50.660;13.226;2023-06-14T08:36:00;18.10;93.60
27224;DHT22;14965;50.660;13.226;2023-06-14T08:38:26;17.60;94.00
27224;DHT22;14965;50.660;13.226;2023-06-14T08:40:53;17.30;94.50
27224;DHT22;14965;50.660;13.226;2023-06-14T08:43:23;17.20;94.60
27224;DHT22;14965;50.660;13.226;2023-06-14T08:45:55;17.30;94.70
27224;DHT22;14965;50.660;13.226;2023-06-14T08:48:26;17.40;94.50
27224;DHT22;14965;50.660;13.226;2023-06-14T08:50:54;17.40;95.10
27224;DHT22;14965;50.660;13.226;2023-06-14T08:53:21;17.30;94.90
27224;DHT22;14965;50.660;13.226;2023-06-14T08:55:48;17.00;94.80
27224;DHT22;14965;50.660;13.226;2023-06-14T08:58:14;16.90;94.60
27224;DHT22;14965;50.660;13.226;2023-06-14T09:00:40;16.90;94.90
27224;DHT22;14965;50.660;13.226;2023-06-14T09:03:06;16.90;95.50
27224;DHT22;14965;50.660;13.226;2023-06-14T09:05:33;17.00;95.00
27224;DHT22;14965;50.660;13.226;2023-06-14T09:07:59;17.30;95.50
27224;DHT22;14965;50.660;13.226;2023-06-14T09:10:25;17.30;94.60
27224;DHT22;14965;50.660;13.226;2023-06-14T09:12:51;17.20;94.50
27224;DHT22;14965;50.660;13.226;2023-06-14T09:15:17;17.10;94.50
27224;DHT22;14965;50.660;13.226;2023-06-14T09:17:43;17.10;94.50
27224;DHT22;14965;50.660;13.226;2023-06-14T09:20:09;17.30;94.40
27224;DHT22;14965;50.660;13.226;2023-06-14T09:22:37;17.60;94.30
27224;DHT22;14965;50.660;13.226;2023-06-14T09:25:04;17.90;94.30
27224;DHT22;14965;50.660;13.226;2023-06-14T09:27:30;17.90;94.10
27224;DHT22;14965;50.660;13.226;2023-06-14T09:29:56;17.80;94.00
27224;DHT22;14965;50.660;13.226;2023-06-14T09:32:22;17.50;93.40
27224;DHT22;14965;50.660;13.226;2023-06-14T09:34:49;17.20;93.30
27224;DHT22;14965;50.660;13.226;2023-06-14T09:37:27;17.00;93.40
27224;DHT22;14965;50.660;13.226;2023-06-14T09:39:54;17.20;94.50
27224;DHT22;14965;50.660;13.226;2023-06-14T09:42:21;17.40;94.50
27224;DHT22;14965;50.660;13.226;2023-06-14T09:44:48;17.70;92.70
27224;DHT22;14965;50.660;13.226;2023-06-14T09:47:15;17.90;92.30
27224;DHT22;14965;50.660;13.226;2023-06-14T09:49:41;18.20;92.80
27224;DHT22;14965;50.660;13.226;2023-06-14T09:52:10;18.60;91.90
27224;DHT22;14965;50.660;13.226;2023-06-14T09:54:41;18.70;90.80
27224;DHT22;14965;50.660;13.226;2023-06-14T09:57:11;18.30;91.40
27224;DHT22;14965;50.660;13.226;2023-06-14T09:59:41;18.00;91.20
27224;DHT22;14965;50.660;13.226;2023-06-14T10:02:15;17.90;91.90
27224;DHT22;14965;50.660;13.226;2023-06-14T10:04:52;17.90;91.90
27224;DHT22;14965;50.660;13.226;2023-06-14T10:07:23;18.10;92.60
27224;DHT22;14965;50.660;13.226;2023-06-14T10:09:53;18.30;91.00
27224;DHT22;14965;50.660;13.226;2023-06-14T10:12:20;18.40;90.80
27224;DHT22;14965;50.660;13.226;2023-06-14T10:14:48;18.50;91.50
27224;DHT22;14965;50.660;13.226;2023-06-14T10:17:22;18.60;92.20
27224;DHT22;14965;50.660;13.226;2023-06-14T10:19:58;18.40;92.60
27224;DHT22;14965;50.660;13.226;2023-06-14T10:22:40;18.10;93.30
27224;DHT22;14965;50.660;13.226;2023-06-14T10:25:13;18.00;93.50
27224;DHT22;14965;50.660;13.226;2023-06-14T10:27:53;18.00;93.70
27224;DHT22;14965;50.660;13.226;2023-06-14T10:30:25;18.20;93.70
27224;DHT22;14965;50.660;13.226;2023-06-14T10:33:04;18.40;93.60
27224;DHT22;14965;50.660;13.226;2023-06-14T10:35:30;18.30;91.80
27224;DHT22;14965;50.660;13.226;2023-06-14T10:38:06;18.40;92.00
27224;DHT22;14965;50.660;13.226;2023-06-14T10:40:34;18.70;92.70
27224;DHT22;14965;50.660;13.226;2023-06-14T10:43:21;18.50;91.30
27224;DHT22;14965;50.660;13.226;2023-06-14T10:46:16;18.20;91.60
27224;DHT22;14965;50.660;13.226;2023-06-14T10:48:43;18.20;91.90
27224;DHT22;14965;50.660;13.226;2023-06-14T10:51:16;18.10;92.10
27224;DHT22;14965;50.660;13.226;2023-06-14T10:53:42;18.10;91.40
27224;DHT22;14965;50.660;13.226;2023-06-14T10:56:09;18.30;90.10
27224;DHT22;14965;50.660;13.226;2023-06-14T10:58:37;18.50;91.80
27224;DHT22;14965;50.660;13.226;2023-06-14T11:01:03;18.60;90.70
27224;DHT22;14965;50.660;13.226;2023-06-14T11:03:50;18.70;88.50
27224;DHT22;14965;50.660;13.226;2023-06-14T11:06:21;18.70;88.00
27224;DHT22;14965;50.660;13.226;2023-06-14T11:09:20;18.80;89.90
27224;DHT22;14965;50.660;13.226;2023-06-14T11:12:02;18.40;88.90
27224;DHT22;14965;50.660;13.226;2023-06-14T11:14:31;18.20;90.30
27224;DHT22;14965;50.660;13.226;2023-06-14T11:16:57;18.20;90.60
27224;DHT22;14965;50.660;13.226;2023-06-14T11:19:22;18.10;90.50
27224;DHT22;14965;50.660;13.226;2023-06-14T11:21:48;18.00;90.90
27224;DHT22;14965;50.660;13.226;2023-06-14T11:24:14;18.10;91.70
27224;DHT22;14965;50.660;13.226;2023-06-14T11:26:40;18.40;90.90
27224;DHT22;14965;50.660;13.226;2023-06-14T11:29:06;18.70;90.50
27224;DHT22;14965;50.660;13.226;2023-06-14T11:31:34;18.70;90.40
27224;DHT22;14965;50.660;13.226;2023-06-14T11:34:00;18.70;90.30
27224;DHT22;14965;50.660;13.226;2023-06-14T11:36:26;18.80;90.00
27224;DHT22;14965;50.660;13.226;2023-06-14T11:38:58;19.00;90.90
27224;DHT22;14965;50.660;13.226;2023-06-14T11:41:24;19.20;91.10
27224;DHT22;14965;50.660;13.226;2023-06-14T11:43:52;19.30;90.10
27224;DHT22;14965;50.660;13.226;2023-06-14T11:46:18;19.40;88.60
27224;DHT22;14965;50.660;13.226;2023-06-14T11:48:45;19.10;88.60
27224;DHT22;14965;50.660;13.226;2023-06-14T11:51:11;18.80;86.80
27224;DHT22;14965;50.660;13.226;2023-06-14T11:53:37;18.50;89.20
27224;DHT22;14965;50.660;13.226;2023-06-14T11:56:04;18.50;88.40
27224;DHT22;14965;50.660;13.226;2023-06-14T11:58:30;18.60;87.60
27224;DHT22;14965;50.660;13.226;2023-06-14T12:00:56;18.70;89.50
27224;DHT22;14965;50.660;13.226;2023-06-14T12:03:23;18.90;89.70
27224;DHT22;14965;50.660;13.226;2023-06-14T12:05:51;18.90;87.80
27224;DHT22;14965;50.660;13.226;2023-06-14T12:08:32;18.90;88.10
27224;DHT22;14965;50.660;13.226;2023-06-14T12:10:59;18.90;89.00
27224;DHT22;14965;50.660;13.226;2023-06-14T12:13:25;18.80;89.70
27224;DHT22;14965;50.660;13.226;2023-06-14T12:15:54;18.90;90.00
27224;DHT22;14965;50.660;13.226;2023-06-14T12:18:21;18.90;90.60
27224;DHT22;14965;50.660;13.226;2023-06-14T12:21:00;18.80;90.40
27224;DHT22;14965;50.660;13.226;2023-06-14T12:23:26;18.60;90.50
27224;DHT22;14965;50.660;13.226;2023-06-14T12:25:52;18.50;92.20
27224;DHT22;14965;50.660;13.226;2023-06-14T12:28:18;18.60;90.90
27224;DHT22;14965;50.660;13.226;2023-06-14T12:30:43;18.70;90.60
27224;DHT22;14965;50.660;13.226;2023-06-14T12:33:09;18.80;90.40
27224;DHT22;14965;50.660;13.226;2023-06-14T12:35:35;18.90;90.70
27224;DHT22;14965;50.660;13.226;2023-06-14T12:38:03;18.80;90.90
27224;DHT22;14965;50.660;13.226;2023-06-14T12:40:29;19.00;91.70
27224;DHT22;14965;50.660;13.226;2023-06-14T12:42:54;19.10;90.20
27224;DHT22;14965;50.660;13.226;2023-06-14T12:45:20;18.80;90.90
27224;DHT22;14965;50.660;13.226;2023-06-14T12:47:46;18.60;92.00
27224;DHT22;14965;50.660;13.226;2023-06-14T12:50:12;18.40;91.40
27224;DHT22;14965;50.660;13.226;2023-06-14T12:52:38;18.30;91.60
27224;DHT22;14965;50.660;13.226;2023-06-14T12:55:07;18.10;91.90
27224;DHT22;14965;50.660;13.226;2023-06-14T12:57:33;17.90;91.90
27224;DHT22;14965;50.660;13.226;2023-06-14T13:00:00;17.80;92.70
27224;DHT22;14965;50.660;13.226;2023-06-14T13:02:26;17.60;92.50
27224;DHT22;14965;50.660;13.226;2023-06-14T13:04:51;17.50;92.30
27224;DHT22;14965;50.660;13.226;2023-06-14T13:07:17;17.40;93.50
27224;DHT22;14965;50.660;13.226;2023-06-14T13:09:46;17.40;93.50
27224;DHT22;14965;50.660;13.226;2023-06-14T13:12:13;17.30;93.80
27224;DHT22;14965;50.660;13.226;2023-06-14T13:14:40;17.30;93.80
27224;DHT22;14965;50.660;13.226;2023-06-14T13:17:07;17.10;93.80
27224;DHT22;14965;50.660;13.226;2023-06-14T13:19:33;17.00;94.10
27224;DHT22;14965;50.660;13.226;2023-06-14T13:21:59;17.00;95.30
27224;DHT22;14965;50.660;13.226;2023-06-14T13:24:25;17.00;94.80
27224;DHT22;14965;50.660;13.226;2023-06-14T13:26:51;17.00;95.40
27224;DHT22;14965;50.660;13.226;2023-06-14T13:29:18;17.00;95.60
27224;DHT22;14965;50.660;13.226;2023-06-14T13:31:44;17.20;96.00
27224;DHT22;14965;50.660;13.226;2023-06-14T13:34:10;17.20;95.20
27224;DHT22;14965;50.660;13.226;2023-06-14T13:36:36;17.20;95.90
27224;DHT22;14965;50.660;13.226;2023-06-14T13:39:02;17.30;95.10
27224;DHT22;14965;50.660;13.226;2023-06-14T13:41:28;17.20;95.00
27224;DHT22;14965;50.660;13.226;2023-06-14T13:43:54;17.20;95.30
27224;DHT22;14965;50.660;13.226;2023-06-14T13:46:21;17.20;95.60
27224;DHT22;14965;50.660;13.226;2023-06-14T13:48:47;17.30;94.60
27224;DHT22;14965;50.660;13.226;2023-06-14T13:51:13;17.40;95.10
27224;DHT22;14965;50.660;13.226;2023-06-14T13:53:39;17.40;94.90
27224;DHT22;14965;50.660;13.226;2023-06-14T13:56:05;17.60;94.70
27224;DHT22;14965;50.660;13.226;2023-06-14T13:58:30;17.50;94.70
27224;DHT22;14965;50.660;13.226;2023-06-14T14:00:56;17.50;94.90
27224;DHT22;14965;50.660;13.226;2023-06-14T14:03:23;17.40;95.00
27224;DHT22;14965;50.660;13.226;2023-06-14T14:05:49;17.40;96.30
27224;DHT22;14965;50.660;13.226;2023-06-14T14:08:15;17.40;96.00
27224;DHT22;14965;50.660;13.226;2023-06-14T14:10:41;17.30;95.40
27224;DHT22;14965;50.660;13.226;2023-06-14T14:13:07;17.20;95.50
27224;DHT22;14965;50.660;13.226;2023-06-14T14:15:32;17.10;95.90
27224;DHT22;14965;50.660;13.226;2023-06-14T14:17:58;17.10;96.70
27224;DHT22;14965;50.660;13.226;2023-06-14T14:20:25;17.00;97.40
27224;DHT22;14965;50.660;13.226;2023-06-14T14:22:51;17.20;97.50
27224;DHT22;14965;50.660;13.226;2023-06-14T14:25:17;17.40;97.40
27224;DHT22;14965;50.660;13.226;2023-06-14T14:27:43;17.50;96.70
27224;DHT22;14965;50.660;13.226;2023-06-14T14:30:09;17.50;96.70
27224;DHT22;14965;50.660;13.226;2023-06-14T14:32:36;17.40;96.50
27224;DHT22;14965;50.660;13.226;2023-06-14T14:35:02;17.20;96.50
27224;DHT22;14965;50.660;13.226;2023-06-14T14:37:30;17.20;96.20
27224;DHT22;14965;50.660;13.226;2023-06-14T14:39:55;17.20;96.30
27224;DHT22;14965;50.660;13.226;2023-06-14T14:42:21;17.20;96.80
27224;DHT22;14965;50.660;13.226;2023-06-14T14:44:47;17.30;95.80
27224;DHT22;14965;50.660;13.226;2023-06-14T14:47:13;17.30;95.70
27224;DHT22;14965;50.660;13.226;2023-06-14T14:49:39;17.30;95.70
27224;DHT22;14965;50.660;13.226;2023-06-14T14:52:05;17.30;95.20
27224;DHT22;14965;50.660;13.226;2023-06-14T14:54:33;17.30;95.60
27224;DHT22;14965;50.660;13.226;2023-06-14T14:56:58;17.40;95.30
27224;DHT22;14965;50.660;13.226;2023-06-14T14:59:24;17.30;95.50
27224;DHT22;14965;50.660;13.226;2023-06-14T15:01:50;17.40;97.20
27224;DHT22;14965;50.660;13.226;2023-06-14T15:04:16;17.50;96.90
27224;DHT22;14965;50.660;13.226;2023-06-14T15:06:42;17.60;95.50
27224;DHT22;14965;50.660;13.226;2023-06-14T15:09:08;17.70;95.70
27224;DHT22;14965;50.660;13.226;2023-06-14T15:11:35;17.60;96.00
27224;DHT22;14965;50.660;13.226;2023-06-14T15:14:01;17.60;96.30
27224;DHT22;14965;50.660;13.226;2023-06-14T15:16:26;17.50;96.90
27224;DHT22;14965;50.660;13.226;2023-06-14T15:18:52;17.60;96.50